sensor_id;sensor_type;location;lat;lon;timestamp;pressure;altitude;pressure_sealevel;temperature;humidity
76990;BME280;65924;47.250;11.332;2023-05-07T00:00:28;94871.62;;;17.07;64.12
76990;BME280;65924;47.250;11.332;2023-05-07T00:01:07;94874.69;;;17.07;64.75
76990;BME280;65924;47.250;11.332;2023-05-07T00:01:46;94874.44;;;17.08;64.44
76990;BME280;65924;47.250;11.332;2023-05-07T00:02:24;94873.73;;;17.08;63.88
76990;BME280;65924;47.250;11.332;2023-05-07T00:03:06;94872.83;;;17.09;64.54
76990;BME280;65924;47.250;11.332;2023-05-07T00:03:45;94874.34;;;17.09;64.17
76990;BME280;65924;47.250;11.332;2023-05-07T00:04:33;94879.60;;;17.09;63.79
76990;BME280;65924;47.250;11.332;2023-05-07T00:05:14;94876.50;;;17.10;63.54
76990;BME280;65924;47.250;11.332;2023-05-07T00:05:53;94871.32;;;17.10;63.68
76990;BME280;65924;47.250;11.332;2023-05-07T00:06:32;94879.36;;;17.10;64.14
76990;BME280;65924;47.250;11.332;2023-05-07T00:07:11;94876.08;;;17.11;64.73
76990;BME280;65924;47.250;11.332;2023-05-07T00:07:49;94876.77;;;17.10;64.09
76990;BME280;65924;47.250;11.332;2023-05-07T00:08:28;94876.91;;;17.07;64.14
76990;BME280;65924;47.250;11.332;2023-05-07T00:09:07;94881.49;;;17.04;63.53
76990;BME280;65924;47.250;11.332;2023-05-07T00:09:49;94884.73;;;16.98;62.88
76990;BME280;65924;47.250;11.332;2023-05-07T00:10:27;94883.23;;;16.94;64.59
76990;BME280;65924;47.250;11.332;2023-05-07T00:11:06;94887.24;;;16.93;64.90
76990;BME280;65924;47.250;11.332;2023-05-07T00:11:45;94890.63;;;16.93;64.91
76990;BME280;65924;47.250;11.332;2023-05-07T00:12:23;94887.49;;;16.92;63.56
76990;BME280;65924;47.250;11.332;2023-05-07T00:13:02;94885.54;;;16.89;64.15
76990;BME280;65924;47.250;11.332;2023-05-07T00:13:41;94887.10;;;16.87;64.11
76990;BME280;65924;47.250;11.332;2023-05-07T00:14:22;94887.45;;;16.87;64.32
76990;BME280;65924;47.250;11.332;2023-05-07T00:15:05;94889.90;;;16.86;64.35
76990;BME280;65924;47.250;11.332;2023-05-07T00:15:44;94889.20;;;16.86;64.31
76990;BME280;65924;47.250;11.332;2023-05-07T00:16:23;94886.34;;;16.87;65.04
76990;BME280;65924;47.250;11.332;2023-05-07T00:17:02;94888.48;;;16.88;64.67
76990;BME280;65924;47.250;11.332;2023-05-07T00:17:40;94886.52;;;16.89;64.46
76990;BME280;65924;47.250;11.332;2023-05-07T00:18:19;94887.20;;;16.91;64.64
76990;BME280;65924;47.250;11.332;2023-05-07T00:19:03;94886.63;;;16.92;65.08
76990;BME280;65924;47.250;11.332;2023-05-07T00:19:42;94882.72;;;16.91;64.76
76990;BME280;65924;47.250;11.332;2023-05-07T00:20:20;94885.09;;;16.94;64.02
76990;BME280;65924;47.250;11.332;2023-05-07T00:20:59;94883.84;;;16.94;64.70
76990;BME280;65924;47.250;11.332;2023-05-07T00:21:38;94884.20;;;16.94;64.00
76990;BME280;65924;47.250;11.332;2023-05-07T00:22:16;94885.34;;;16.95;64.86
76990;BME280;65924;47.250;11.332;2023-05-07T00:22:55;94883.59;;;16.95;64.10
76990;BME280;65924;47.250;11.332;2023-05-07T00:23:34;94882.66;;;16.96;63.82
76990;BME280;65924;47.250;11.332;2023-05-07T00:24:12;94883.45;;;16.97;63.70
76990;BME280;65924;47.250;11.332;2023-05-07T00:24:50;94881.37;;;16.97;64.59
76990;BME280;65924;47.250;11.332;2023-05-07T00:25:32;94880.90;;;16.94;64.55
76990;BME280;65924;47.250;11.332;2023-05-07T00:26:11;94882.00;;;16.95;65.44
76990;BME280;65924;47.250;11.332;2023-05-07T00:26:49;94883.45;;;16.95;65.05
76990;BME280;65924;47.250;11.332;2023-05-07T00:27:28;94882.69;;;16.94;64.36
76990;BME280;65924;47.250;11.332;2023-05-07T00:28:07;94883.42;;;16.91;65.42
76990;BME280;65924;47.250;11.332;2023-05-07T00:28:45;94878.97;;;16.89;65.01
76990;BME280;65924;47.250;11.332;2023-05-07T00:29:24;94881.17;;;16.88;64.55
76990;BME280;65924;47.250;11.332;2023-05-07T00:30:03;94880.88;;;16.85;64.48
76990;BME280;65924;47.250;11.332;2023-05-07T00:30:42;94882.06;;;16.83;65.44
76990;BME280;65924;47.250;11.332;2023-05-07T00:31:21;94881.73;;;16.83;65.48
76990;BME280;65924;47.250;11.332;2023-05-07T00:32:00;94880.17;;;16.81;65.64
76990;BME280;65924;47.250;11.332;2023-05-07T00:32:38;94881.77;;;16.82;65.89
76990;BME280;65924;47.250;11.332;2023-05-07T00:33:17;94878.64;;;16.81;64.63
76990;BME280;65924;47.250;11.332;2023-05-07T00:34:05;94883.02;;;16.76;63.76
76990;BME280;65924;47.250;11.332;2023-05-07T00:34:44;94881.90;;;16.71;64.07
76990;BME280;65924;47.250;11.332;2023-05-07T00:35:23;94880.67;;;16.70;64.77
76990;BME280;65924;47.250;11.332;2023-05-07T00:36:02;94882.21;;;16.70;64.42
76990;BME280;65924;47.250;11.332;2023-05-07T00:36:41;94878.59;;;16.70;64.19
76990;BME280;65924;47.250;11.332;2023-05-07T00:37:19;94881.02;;;16.70;64.41
76990;BME280;65924;47.250;11.332;2023-05-07T00:37:58;94877.25;;;16.69;64.42
76990;BME280;65924;47.250;11.332;2023-05-07T00:38:37;94881.36;;;16.68;63.82
76990;BME280;65924;47.250;11.332;2023-05-07T00:39:15;94877.27;;;16.65;64.45
76990;BME280;65924;47.250;11.332;2023-05-07T00:39:54;94878.21;;;16.66;64.88
76990;BME280;65924;47.250;11.332;2023-05-07T00:40:33;94875.45;;;16.66;65.08
76990;BME280;65924;47.250;11.332;2023-05-07T00:41:15;94877.48;;;16.67;65.36
76990;BME280;65924;47.250;11.332;2023-05-07T00:41:53;94871.20;;;16.66;65.20
76990;BME280;65924;47.250;11.332;2023-05-07T00:42:32;94872.28;;;16.67;64.93
76990;BME280;65924;47.250;11.332;2023-05-07T00:43:11;94873.40;;;16.66;65.59
76990;BME280;65924;47.250;11.332;2023-05-07T00:43:51;94872.05;;;16.66;65.53
76990;BME280;65924;47.250;11.332;2023-05-07T00:44:30;94874.40;;;16.67;65.60
76990;BME280;65924;47.250;11.332;2023-05-07T00:45:09;94873.11;;;16.68;65.66
76990;BME280;65924;47.250;11.332;2023-05-07T00:45:49;94872.77;;;16.67;65.19
76990;BME280;65924;47.250;11.332;2023-05-07T00:46:31;94870.89;;;16.65;64.53
76990;BME280;65924;47.250;11.332;2023-05-07T00:47:11;94877.08;;;16.67;64.54
76990;BME280;65924;47.250;11.332;2023-05-07T00:47:49;94875.46;;;16.68;64.46
76990;BME280;65924;47.250;11.332;2023-05-07T00:48:28;94873.90;;;16.66;64.14
76990;BME280;65924;47.250;11.332;2023-05-07T00:49:07;94876.20;;;16.66;64.37
76990;BME280;65924;47.250;11.332;2023-05-07T00:49:45;94877.37;;;16.66;64.67
76990;BME280;65924;47.250;11.332;2023-05-07T00:50:25;94877.84;;;16.67;64.79
76990;BME280;65924;47.250;11.332;2023-05-07T00:51:04;94875.80;;;16.66;64.71
76990;BME280;65924;47.250;11.332;2023-05-07T00:51:44;94874.25;;;16.66;64.59
76990;BME280;65924;47.250;11.332;2023-05-07T00:52:25;94876.73;;;16.66;64.07
76990;BME280;65924;47.250;11.332;2023-05-07T00:53:04;94874.33;;;16.61;64.70
76990;BME280;65924;47.250;11.332;2023-05-07T00:53:43;94870.05;;;16.59;64.69
76990;BME280;65924;47.250;11.332;2023-05-07T00:54:21;94872.83;;;16.57;64.79
76990;BME280;65924;47.250;11.332;2023-05-07T00:55:05;94867.64;;;16.55;65.33
76990;BME280;65924;47.250;11.332;2023-05-07T00:55:44;94868.17;;;16.55;65.17
76990;BME280;65924;47.250;11.332;2023-05-07T00:56:23;94868.36;;;16.55;65.32
76990;BME280;65924;47.250;11.332;2023-05-07T00:57:03;94868.41;;;16.54;64.95
76990;BME280;65924;47.250;11.332;2023-05-07T00:57:42;94867.69;;;16.55;65.81
76990;BME280;65924;47.250;11.332;2023-05-07T00:58:21;94867.30;;;16.55;65.86
76990;BME280;65924;47.250;11.332;2023-05-07T00:59:01;94865.27;;;16.55;65.78
76990;BME280;65924;47.250;11.332;2023-05-07T00:59:41;94867.34;;;16.55;66.01
76990;BME280;65924;47.250;11.332;2023-05-07T01:00:20;94865.48;;;16.54;65.36
76990;BME280;65924;47.250;11.332;2023-05-07T01:00:59;94863.75;;;16.53;64.64
76990;BME280;65924;47.250;11.332;2023-05-07T01:01:38;94861.84;;;16.47;64.22
76990;BME280;65924;47.250;11.332;2023-05-07T01:02:17;94862.64;;;16.46;64.77
76990;BME280;65924;47.250;11.332;2023-05-07T01:02:56;94859.84;;;16.46;65.60
76990;BME280;65924;47.250;11.332;2023-05-07T01:03:34;94860.16;;;16.47;65.49
76990;BME280;65924;47.250;11.332;2023-05-07T01:04:13;94860.02;;;16.44;64.53
76990;BME280;65924;47.250;11.332;2023-05-07T01:04:52;94862.10;;;16.42;64.68
76990;BME280;65924;47.250;11.332;2023-05-07T01:05:30;94861.59;;;16.40;65.57
76990;BME280;65924;47.250;11.332;2023-05-07T01:06:10;94861.96;;;16.40;65.89
76990;BME280;65924;47.250;11.332;2023-05-07T01:06:52;94865.29;;;16.39;65.93
76990;BME280;65924;47.250;11.332;2023-05-07T01:07:34;94865.52;;;16.38;65.60
76990;BME280;65924;47.250;11.332;2023-05-07T01:08:15;94860.85;;;16.37;65.57
76990;BME280;65924;47.250;11.332;2023-05-07T01:08:54;94863.40;;;16.39;65.90
76990;BME280;65924;47.250;11.332;2023-05-07T01:09:35;94865.72;;;16.38;65.88
76990;BME280;65924;47.250;11.332;2023-05-07T01:10:15;94867.30;;;16.37;65.54
76990;BME280;65924;47.250;11.332;2023-05-07T01:10:55;94862.12;;;16.36;65.64
76990;BME280;65924;47.250;11.332;2023-05-07T01:11:34;94865.08;;;16.35;65.12
76990;BME280;65924;47.250;11.332;2023-05-07T01:12:13;94863.58;;;16.33;65.86
76990;BME280;65924;47.250;11.332;2023-05-07T01:12:53;94861.16;;;16.31;65.48
76990;BME280;65924;47.250;11.332;2023-05-07T01:13:33;94864.58;;;16.31;65.14
76990;BME280;65924;47.250;11.332;2023-05-07T01:14:13;94860.45;;;16.31;65.38
76990;BME280;65924;47.250;11.332;2023-05-07T01:14:52;94862.02;;;16.31;64.84
76990;BME280;65924;47.250;11.332;2023-05-07T01:15:31;94857.71;;;16.29;65.15
76990;BME280;65924;47.250;11.332;2023-05-07T01:16:10;94857.86;;;16.28;65.05
76990;BME280;65924;47.250;11.332;2023-05-07T01:16:49;94861.25;;;16.26;65.33
76990;BME280;65924;47.250;11.332;2023-05-07T01:17:41;94859.31;;;16.27;65.16
76990;BME280;65924;47.250;11.332;2023-05-07T01:18:24;94862.09;;;16.28;64.58
76990;BME280;65924;47.250;11.332;2023-05-07T01:19:04;94859.96;;;16.29;64.49
76990;BME280;65924;47.250;11.332;2023-05-07T01:19:44;94863.62;;;16.30;65.05
76990;BME280;65924;47.250;11.332;2023-05-07T01:20:23;94858.90;;;16.29;65.24
76990;BME280;65924;47.250;11.332;2023-05-07T01:21:04;94864.85;;;16.32;65.17
76990;BME280;65924;47.250;11.332;2023-05-07T01:21:49;94864.61;;;16.33;65.59
76990;BME280;65924;47.250;11.332;2023-05-07T01:22:34;94864.15;;;16.34;65.71
76990;BME280;65924;47.250;11.332;2023-05-07T01:23:15;94863.06;;;16.35;65.82
76990;BME280;65924;47.250;11.332;2023-05-07T01:23:54;94859.70;;;16.34;65.97
76990;BME280;65924;47.250;11.332;2023-05-07T01:24:36;94861.61;;;16.36;65.83
76990;BME280;65924;47.250;11.332;2023-05-07T01:25:15;94860.84;;;16.37;65.09
76990;BME280;65924;47.250;11.332;2023-05-07T01:25:58;94859.55;;;16.36;65.06
76990;BME280;65924;47.250;11.332;2023-05-07T01:26:38;94858.55;;;16.33;65.38
76990;BME280;65924;47.250;11.332;2023-05-07T01:27:18;94860.61;;;16.35;65.12
76990;BME280;65924;47.250;11.332;2023-05-07T01:27:58;94857.27;;;16.34;65.14
76990;BME280;65924;47.250;11.332;2023-05-07T01:28:41;94855.81;;;16.35;65.40
76990;BME280;65924;47.250;11.332;2023-05-07T01:29:20;94858.17;;;16.36;65.90
76990;BME280;65924;47.250;11.332;2023-05-07T01:29:59;94855.70;;;16.36;66.33
76990;BME280;65924;47.250;11.332;2023-05-07T01:30:41;94856.51;;;16.37;66.20
76990;BME280;65924;47.250;11.332;2023-05-07T01:31:20;94856.29;;;16.37;66.67
76990;BME280;65924;47.250;11.332;2023-05-07T01:32:01;94856.60;;;16.38;66.61
76990;BME280;65924;47.250;11.332;2023-05-07T01:33:22;94857.52;;;16.39;66.17
76990;BME280;65924;47.250;11.332;2023-05-07T01:34:05;94858.38;;;16.39;65.32
76990;BME280;65924;47.250;11.332;2023-05-07T01:34:48;94855.23;;;16.40;64.78
76990;BME280;65924;47.250;11.332;2023-05-07T01:35:33;94856.06;;;16.40;65.32
76990;BME280;65924;47.250;11.332;2023-05-07T01:36:13;94851.05;;;16.41;65.90
76990;BME280;65924;47.250;11.332;2023-05-07T01:36:56;94852.95;;;16.40;65.98
76990;BME280;65924;47.250;11.332;2023-05-07T01:37:38;94848.93;;;16.39;66.57
76990;BME280;65924;47.250;11.332;2023-05-07T01:38:18;94848.04;;;16.38;66.49
76990;BME280;65924;47.250;11.332;2023-05-07T01:38:58;94848.48;;;16.41;66.77
76990;BME280;65924;47.250;11.332;2023-05-07T01:39:39;94847.20;;;16.41;66.70
76990;BME280;65924;47.250;11.332;2023-05-07T01:40:18;94849.39;;;16.42;66.78
76990;BME280;65924;47.250;11.332;2023-05-07T01:40:57;94844.52;;;16.43;65.74
76990;BME280;65924;47.250;11.332;2023-05-07T01:41:37;94846.98;;;16.45;65.56
76990;BME280;65924;47.250;11.332;2023-05-07T01:42:16;94844.75;;;16.44;65.50
76990;BME280;65924;47.250;11.332;2023-05-07T01:42:55;94843.27;;;16.45;65.06
76990;BME280;65924;47.250;11.332;2023-05-07T01:43:35;94844.09;;;16.46;65.04
76990;BME280;65924;47.250;11.332;2023-05-07T01:44:20;94842.98;;;16.47;65.48
76990;BME280;65924;47.250;11.332;2023-05-07T01:44:59;94842.77;;;16.47;65.23
76990;BME280;65924;47.250;11.332;2023-05-07T01:45:38;94844.40;;;16.46;65.24
76990;BME280;65924;47.250;11.332;2023-05-07T01:46:19;94845.34;;;16.45;64.96
76990;BME280;65924;47.250;11.332;2023-05-07T01:46:58;94843.11;;;16.43;65.01
76990;BME280;65924;47.250;11.332;2023-05-07T01:47:38;94841.11;;;16.41;65.34
76990;BME280;65924;47.250;11.332;2023-05-07T01:48:17;94844.39;;;16.40;65.01
76990;BME280;65924;47.250;11.332;2023-05-07T01:48:56;94845.44;;;16.40;65.05
76990;BME280;65924;47.250;11.332;2023-05-07T01:49:35;94844.02;;;16.39;64.98
76990;BME280;65924;47.250;11.332;2023-05-07T01:50:15;94843.30;;;16.37;65.72
76990;BME280;65924;47.250;11.332;2023-05-07T01:50:55;94842.52;;;16.38;65.52
76990;BME280;65924;47.250;11.332;2023-05-07T01:51:34;94845.19;;;16.39;65.63
76990;BME280;65924;47.250;11.332;2023-05-07T01:52:14;94847.55;;;16.39;65.31
76990;BME280;65924;47.250;11.332;2023-05-07T01:52:52;94847.69;;;16.40;65.28
76990;BME280;65924;47.250;11.332;2023-05-07T01:53:40;94844.09;;;16.40;65.30
76990;BME280;65924;47.250;11.332;2023-05-07T01:54:28;94845.58;;;16.41;65.89
76990;BME280;65924;47.250;11.332;2023-05-07T01:55:06;94846.84;;;16.40;65.46
76990;BME280;65924;47.250;11.332;2023-05-07T01:55:45;94848.20;;;16.38;65.45
76990;BME280;65924;47.250;11.332;2023-05-07T01:56:25;94850.10;;;16.36;65.38
76990;BME280;65924;47.250;11.332;2023-05-07T01:57:04;94851.55;;;16.35;65.35
76990;BME280;65924;47.250;11.332;2023-05-07T01:57:42;94849.80;;;16.34;65.16
76990;BME280;65924;47.250;11.332;2023-05-07T01:58:21;94849.83;;;16.31;64.65
76990;BME280;65924;47.250;11.332;2023-05-07T01:59:00;94850.64;;;16.27;65.27
76990;BME280;65924;47.250;11.332;2023-05-07T01:59:40;94849.23;;;16.28;65.34
76990;BME280;65924;47.250;11.332;2023-05-07T02:00:19;94847.17;;;16.26;65.57
76990;BME280;65924;47.250;11.332;2023-05-07T02:00:57;94844.45;;;16.23;65.28
76990;BME280;65924;47.250;11.332;2023-05-07T02:01:36;94843.98;;;16.21;65.39
76990;BME280;65924;47.250;11.332;2023-05-07T02:02:15;94849.84;;;16.20;65.11
76990;BME280;65924;47.250;11.332;2023-05-07T02:02:54;94845.86;;;16.21;65.31
76990;BME280;65924;47.250;11.332;2023-05-07T02:03:40;94844.98;;;16.19;65.65
76990;BME280;65924;47.250;11.332;2023-05-07T02:04:22;94846.36;;;16.19;65.65
76990;BME280;65924;47.250;11.332;2023-05-07T02:05:04;94850.04;;;16.18;65.37
76990;BME280;65924;47.250;11.332;2023-05-07T02:05:43;94852.18;;;16.17;66.01
76990;BME280;65924;47.250;11.332;2023-05-07T02:06:34;94851.72;;;16.17;65.50
76990;BME280;65924;47.250;11.332;2023-05-07T02:07:16;94855.27;;;16.13;65.80
76990;BME280;65924;47.250;11.332;2023-05-07T02:07:55;94858.88;;;16.11;65.70
76990;BME280;65924;47.250;11.332;2023-05-07T02:08:33;94859.02;;;16.10;66.53
76990;BME280;65924;47.250;11.332;2023-05-07T02:09:13;94858.63;;;16.08;66.37
76990;BME280;65924;47.250;11.332;2023-05-07T02:09:55;94859.75;;;16.07;66.89
76990;BME280;65924;47.250;11.332;2023-05-07T02:10:35;94861.54;;;16.08;66.95
76990;BME280;65924;47.250;11.332;2023-05-07T02:11:14;94861.70;;;16.09;66.58
76990;BME280;65924;47.250;11.332;2023-05-07T02:11:52;94862.95;;;16.08;66.01
76990;BME280;65924;47.250;11.332;2023-05-07T02:12:32;94864.90;;;16.05;65.75
76990;BME280;65924;47.250;11.332;2023-05-07T02:13:11;94863.34;;;16.01;65.41
76990;BME280;65924;47.250;11.332;2023-05-07T02:13:49;94863.73;;;15.98;65.45
76990;BME280;65924;47.250;11.332;2023-05-07T02:14:29;94863.02;;;15.97;65.66
76990;BME280;65924;47.250;11.332;2023-05-07T02:15:08;94863.53;;;15.95;65.69
76990;BME280;65924;47.250;11.332;2023-05-07T02:15:47;94863.20;;;15.95;66.33
76990;BME280;65924;47.250;11.332;2023-05-07T02:16:29;94861.69;;;15.94;65.73
76990;BME280;65924;47.250;11.332;2023-05-07T02:17:08;94862.77;;;15.94;66.23
76990;BME280;65924;47.250;11.332;2023-05-07T02:18:02;94864.08;;;15.94;65.87
76990;BME280;65924;47.250;11.332;2023-05-07T02:18:41;94863.11;;;15.96;65.86
76990;BME280;65924;47.250;11.332;2023-05-07T02:19:20;94865.27;;;15.95;66.19
76990;BME280;65924;47.250;11.332;2023-05-07T02:19:59;94866.73;;;15.96;67.17
76990;BME280;65924;47.250;11.332;2023-05-07T02:20:38;94865.14;;;15.96;66.75
76990;BME280;65924;47.250;11.332;2023-05-07T02:21:17;94868.67;;;15.97;66.63
76990;BME280;65924;47.250;11.332;2023-05-07T02:21:56;94869.09;;;15.96;66.68
76990;BME280;65924;47.250;11.332;2023-05-07T02:22:34;94868.52;;;15.97;67.05
76990;BME280;65924;47.250;11.332;2023-05-07T02:23:13;94865.69;;;15.98;67.15
76990;BME280;65924;47.250;11.332;2023-05-07T02:23:52;94865.33;;;15.98;66.80
76990;BME280;65924;47.250;11.332;2023-05-07T02:24:30;94867.34;;;15.98;66.83
76990;BME280;65924;47.250;11.332;2023-05-07T02:25:09;94864.74;;;15.99;67.38
76990;BME280;65924;47.250;11.332;2023-05-07T02:25:48;94867.70;;;16.00;67.29
76990;BME280;65924;47.250;11.332;2023-05-07T02:26:26;94867.36;;;16.00;66.72
76990;BME280;65924;47.250;11.332;2023-05-07T02:27:06;94864.59;;;16.01;66.35
76990;BME280;65924;47.250;11.332;2023-05-07T02:27:44;94864.18;;;16.01;66.20
76990;BME280;65924;47.250;11.332;2023-05-07T02:28:24;94865.60;;;16.01;66.06
76990;BME280;65924;47.250;11.332;2023-05-07T02:29:10;94865.55;;;16.01;65.75
76990;BME280;65924;47.250;11.332;2023-05-07T02:29:49;94867.04;;;16.04;65.96
76990;BME280;65924;47.250;11.332;2023-05-07T02:30:28;94864.21;;;16.05;66.38
76990;BME280;65924;47.250;11.332;2023-05-07T02:31:07;94860.35;;;16.06;66.44
76990;BME280;65924;47.250;11.332;2023-05-07T02:31:46;94860.79;;;16.07;66.78
76990;BME280;65924;47.250;11.332;2023-05-07T02:32:29;94856.75;;;16.08;66.70
76990;BME280;65924;47.250;11.332;2023-05-07T02:33:07;94859.63;;;16.08;66.93
76990;BME280;65924;47.250;11.332;2023-05-07T02:33:47;94856.63;;;16.10;67.33
76990;BME280;65924;47.250;11.332;2023-05-07T02:34:26;94851.02;;;16.11;67.69
76990;BME280;65924;47.250;11.332;2023-05-07T02:35:07;94849.95;;;16.12;67.51
76990;BME280;65924;47.250;11.332;2023-05-07T02:35:46;94849.80;;;16.13;67.03
76990;BME280;65924;47.250;11.332;2023-05-07T02:36:27;94850.27;;;16.14;66.99
76990;BME280;65924;47.250;11.332;2023-05-07T02:37:11;94848.99;;;16.14;66.50
76990;BME280;65924;47.250;11.332;2023-05-07T02:37:49;94849.90;;;16.14;65.96
76990;BME280;65924;47.250;11.332;2023-05-07T02:38:28;94850.67;;;16.15;65.70
76990;BME280;65924;47.250;11.332;2023-05-07T02:39:07;94844.48;;;16.11;66.05
76990;BME280;65924;47.250;11.332;2023-05-07T02:39:45;94850.28;;;16.15;66.83
76990;BME280;65924;47.250;11.332;2023-05-07T02:40:24;94850.90;;;16.16;66.86
76990;BME280;65924;47.250;11.332;2023-05-07T02:41:03;94850.14;;;16.17;66.35
76990;BME280;65924;47.250;11.332;2023-05-07T02:41:43;94849.94;;;16.17;66.74
76990;BME280;65924;47.250;11.332;2023-05-07T02:42:22;94848.02;;;16.18;67.28
76990;BME280;65924;47.250;11.332;2023-05-07T02:43:01;94849.26;;;16.17;67.01
76990;BME280;65924;47.250;11.332;2023-05-07T02:43:39;94847.77;;;16.17;66.74
76990;BME280;65924;47.250;11.332;2023-05-07T02:44:18;94848.39;;;16.16;66.86
76990;BME280;65924;47.250;11.332;2023-05-07T02:44:58;94846.95;;;16.14;66.56
76990;BME280;65924;47.250;11.332;2023-05-07T02:45:37;94845.58;;;16.12;66.20
76990;BME280;65924;47.250;11.332;2023-05-07T02:46:16;94848.41;;;16.13;66.40
76990;BME280;65924;47.250;11.332;2023-05-07T02:46:57;94846.27;;;16.12;66.43
76990;BME280;65924;47.250;11.332;2023-05-07T02:47:37;94845.45;;;16.12;66.56
76990;BME280;65924;47.250;11.332;2023-05-07T02:48:16;94844.96;;;16.11;67.30
76990;BME280;65924;47.250;11.332;2023-05-07T02:48:55;94841.73;;;16.11;67.21
76990;BME280;65924;47.250;11.332;2023-05-07T02:49:33;94840.68;;;16.12;67.32
76990;BME280;65924;47.250;11.332;2023-05-07T02:50:12;94842.29;;;16.11;67.82
76990;BME280;65924;47.250;11.332;2023-05-07T02:50:51;94840.50;;;16.12;67.64
76990;BME280;65924;47.250;11.332;2023-05-07T02:51:30;94837.24;;;16.12;67.61
76990;BME280;65924;47.250;11.332;2023-05-07T02:52:10;94840.45;;;16.12;67.18
76990;BME280;65924;47.250;11.332;2023-05-07T02:52:49;94832.54;;;16.11;67.57
76990;BME280;65924;47.250;11.332;2023-05-07T02:53:27;94836.68;;;16.12;68.13
76990;BME280;65924;47.250;11.332;2023-05-07T02:54:08;94835.35;;;16.12;68.17
76990;BME280;65924;47.250;11.332;2023-05-07T02:54:46;94838.74;;;16.12;67.97
76990;BME280;65924;47.250;11.332;2023-05-07T02:55:25;94840.15;;;16.12;67.87
76990;BME280;65924;47.250;11.332;2023-05-07T02:56:04;94838.58;;;16.12;67.44
76990;BME280;65924;47.250;11.332;2023-05-07T02:56:44;94841.10;;;16.13;67.71
76990;BME280;65924;47.250;11.332;2023-05-07T02:57:23;94840.21;;;16.13;68.16
76990;BME280;65924;47.250;11.332;2023-05-07T02:58:02;94840.89;;;16.13;68.28
76990;BME280;65924;47.250;11.332;2023-05-07T02:58:42;94843.52;;;16.13;68.93
76990;BME280;65924;47.250;11.332;2023-05-07T02:59:21;94839.48;;;16.11;67.29
76990;BME280;65924;47.250;11.332;2023-05-07T03:00:10;94838.13;;;16.07;66.86
76990;BME280;65924;47.250;11.332;2023-05-07T03:00:49;94824.68;;;15.96;67.36
76990;BME280;65924;47.250;11.332;2023-05-07T03:01:42;94833.73;;;16.02;67.63
76990;BME280;65924;47.250;11.332;2023-05-07T03:02:23;94834.45;;;16.00;67.67
76990;BME280;65924;47.250;11.332;2023-05-07T03:03:02;94836.31;;;16.00;67.40
76990;BME280;65924;47.250;11.332;2023-05-07T03:03:41;94830.85;;;16.00;67.40
76990;BME280;65924;47.250;11.332;2023-05-07T03:04:19;94828.92;;;15.99;67.66
76990;BME280;65924;47.250;11.332;2023-05-07T03:04:58;94829.93;;;15.99;66.76
76990;BME280;65924;47.250;11.332;2023-05-07T03:05:37;94828.29;;;16.00;66.81
76990;BME280;65924;47.250;11.332;2023-05-07T03:06:16;94833.05;;;16.00;67.18
76990;BME280;65924;47.250;11.332;2023-05-07T03:06:55;94831.45;;;16.01;67.31
76990;BME280;65924;47.250;11.332;2023-05-07T03:07:35;94827.81;;;16.02;67.35
76990;BME280;65924;47.250;11.332;2023-05-07T03:08:13;94828.75;;;16.03;67.35
76990;BME280;65924;47.250;11.332;2023-05-07T03:08:52;94824.07;;;16.03;67.40
76990;BME280;65924;47.250;11.332;2023-05-07T03:09:31;94824.73;;;16.03;67.60
76990;BME280;65924;47.250;11.332;2023-05-07T03:10:10;94824.65;;;16.02;67.67
76990;BME280;65924;47.250;11.332;2023-05-07T03:10:48;94823.05;;;16.05;67.81
76990;BME280;65924;47.250;11.332;2023-05-07T03:11:27;94824.36;;;16.05;68.30
76990;BME280;65924;47.250;11.332;2023-05-07T03:12:06;94823.75;;;16.07;68.28
76990;BME280;65924;47.250;11.332;2023-05-07T03:12:45;94824.70;;;16.08;67.78
76990;BME280;65924;47.250;11.332;2023-05-07T03:13:24;94822.55;;;16.09;66.90
76990;BME280;65924;47.250;11.332;2023-05-07T03:14:04;94818.31;;;16.06;66.46
76990;BME280;65924;47.250;11.332;2023-05-07T03:14:43;94823.92;;;16.11;67.28
76990;BME280;65924;47.250;11.332;2023-05-07T03:15:22;94823.69;;;16.12;66.88
76990;BME280;65924;47.250;11.332;2023-05-07T03:16:02;94823.48;;;16.12;66.52
76990;BME280;65924;47.250;11.332;2023-05-07T03:16:41;94825.45;;;16.13;67.56
76990;BME280;65924;47.250;11.332;2023-05-07T03:17:20;94823.59;;;16.13;67.48
76990;BME280;65924;47.250;11.332;2023-05-07T03:17:59;94822.83;;;16.14;67.31
76990;BME280;65924;47.250;11.332;2023-05-07T03:18:38;94821.82;;;16.13;67.05
76990;BME280;65924;47.250;11.332;2023-05-07T03:19:17;94821.73;;;16.14;67.30
76990;BME280;65924;47.250;11.332;2023-05-07T03:19:55;94820.16;;;16.15;67.85
76990;BME280;65924;47.250;11.332;2023-05-07T03:20:34;94824.62;;;16.15;67.57
76990;BME280;65924;47.250;11.332;2023-05-07T03:21:15;94825.94;;;16.15;67.06
76990;BME280;65924;47.250;11.332;2023-05-07T03:21:56;94823.95;;;16.14;66.80
76990;BME280;65924;47.250;11.332;2023-05-07T03:22:35;94825.56;;;16.16;66.74
76990;BME280;65924;47.250;11.332;2023-05-07T03:23:14;94826.86;;;16.15;66.64
76990;BME280;65924;47.250;11.332;2023-05-07T03:23:52;94828.23;;;16.15;66.77
76990;BME280;65924;47.250;11.332;2023-05-07T03:24:33;94828.94;;;16.12;66.21
76990;BME280;65924;47.250;11.332;2023-05-07T03:25:12;94826.06;;;16.10;66.67
76990;BME280;65924;47.250;11.332;2023-05-07T03:25:51;94829.71;;;16.09;66.44
76990;BME280;65924;47.250;11.332;2023-05-07T03:26:30;94825.95;;;16.09;66.18
76990;BME280;65924;47.250;11.332;2023-05-07T03:27:12;94824.92;;;16.09;66.25
76990;BME280;65924;47.250;11.332;2023-05-07T03:27:51;94825.25;;;16.10;66.15
76990;BME280;65924;47.250;11.332;2023-05-07T03:28:31;94826.10;;;16.10;65.86
76990;BME280;65924;47.250;11.332;2023-05-07T03:29:12;94826.91;;;16.10;65.71